Airfield :
LOGIN :

Register | Disclaimer

   EN    FR    IT 

 










Legend :    VFR   Marginal VFR   IFR   Intensive IFR   Very Intensive IFR
Visi :
Ceiling :
>= 8 km
>= 3000ft
5 to 8 km
1000 to 3000 ft
1500m to 5 km
500 to 1000 ft
800 to 1500m
200 to 500 ft
< 800m
< 200 ft
Symbols :   Thunderstorms  Fog  Heavy snow  Heavy precipitations  Wind > 20 kt
SIGMETs :     Misc.  Thunderstorms  Icing  Turbulence  Mountain Waves  Volcanic Ashes







- Airport Elevation : 124 ft
- IATA code : NHT
- Download approach charts


EGWU - RAF Northolt

CURRENT METAR :
  • 160822Z 21006KT 4000 BR SCT005 BKN021 09/08 Q1023 YLO1 BECMG 6000 HZ YLO1

EXPIRED METARs :
  • 160750Z 22004KT 4000 BR FEW005 BKN021 08/08 Q1023 TEMPO SCT005
  • 160650Z 21005KT 4000 BR FEW005 BKN020 07/06 Q1022 TEMPO SCT005
  • 160550Z AUTO 20004KT 3500 // BKN025/// 05/05 Q1022

TAF TAF EGWU
Valid from the 16 at 09:00 until the 17 at 03:00 UTC


160746Z 1609/1703 22008KT 6000 HZ BKN020
BECMG 1609/1611 9999 NSW
TEMPO 1609/1612 BKN010
BECMG 1612/1615 BKN008
BECMG 1615/1618 BKN006
PROB40 1618/1702 6000 HZ BKN004
No reported NOTAMs for that airfield.



MET'MAP, your aeronautical weather chart ! - Copyright ORBIFLY December 2007 - Disclaimer

ORBIFLY MET'MAP TEAM :

Programming & Development : Alexandra Zaïnal
Concept & Development : Baudouin d'Aumeries
Co-Development & Prog : Marc-Olivier Méhu
Technical & hardware support : Manuel Goepfert

Contact : metmap@orbifly.com




SOURCES & CREDITS :

   NOAA